Time;durP1;ratioP1;P1;durP2;ratioP2;P2;SDS_P1;SDS_P2;PMS_P1;PMS_P2;Temp;Humidity;BMP_temperature;BMP_pressure;BME280_temperature;BME280_humidity;BME280_pressure;Samples;Min_cycle;Max_cycle;Signal;HPM_P1;HPM_P2
2021/09/25 00:02:18;;;;;;;;;25.00;24.00;;;;;14.18;75.18;101214.75;5059914;28;45457;-83
2021/09/25 00:04:44;;;;;;;;;23.33;23.33;;;;;14.16;75.42;101206.13;5059577;28;45391;-83
2021/09/25 00:07:10;;;;;;;;;27.00;26.00;;;;;14.14;75.54;101201.78;5059466;28;45149;-83
2021/09/25 00:09:35;;;;;;;;;25.00;24.00;;;;;14.18;75.20;101209.41;5059706;28;45199;-83
2021/09/25 00:12:01;;;;;;;;;21.67;21.67;;;;;14.07;75.25;101202.72;5059763;28;45315;-83
2021/09/25 00:14:27;;;;;;;;;25.67;23.67;;;;;14.03;75.48;101199.56;5059435;28;45322;-83
2021/09/25 00:16:52;;;;;;;;;26.00;25.67;;;;;14.01;75.75;101215.00;5059429;28;45208;-83
2021/09/25 00:19:18;;;;;;;;;21.33;21.33;;;;;13.92;75.66;101198.19;5059579;28;45153;-83
2021/09/25 00:21:44;;;;;;;;;22.33;22.33;;;;;13.95;75.67;101200.50;5059117;28;45425;-83
2021/09/25 00:24:09;;;;;;;;;23.33;23.00;;;;;14.00;75.59;101205.28;5059482;28;45331;-83
2021/09/25 00:26:35;;;;;;;;;23.00;22.33;;;;;13.95;75.76;101207.72;5059523;28;45391;-83
2021/09/25 00:29:01;;;;;;;;;23.33;22.00;;;;;13.94;75.79;101208.69;5059182;28;45331;-83
2021/09/25 00:31:26;;;;;;;;;23.67;21.33;;;;;13.90;75.70;101202.91;5059323;28;45329;-83
2021/09/25 00:33:52;;;;;;;;;24.00;22.33;;;;;13.88;75.43;101203.09;5059232;28;45364;-83
2021/09/25 00:36:17;;;;;;;;;27.67;26.00;;;;;13.92;75.60;101194.72;5059126;28;45326;-84
2021/09/25 00:38:43;;;;;;;;;22.00;21.00;;;;;13.92;75.50;101197.38;5058796;28;45274;-84
2021/09/25 00:41:08;;;;;;;;;23.33;22.67;;;;;13.89;75.40;101196.72;5059342;28;45244;-84
2021/09/25 00:43:34;;;;;;;;;24.00;24.00;;;;;13.81;75.44;101191.50;5058971;28;45290;-84
2021/09/25 00:46:00;;;;;;;;;21.67;21.33;;;;;13.78;75.36;101194.53;5058941;28;45313;-84
2021/09/25 00:48:26;;;;;;;;;21.67;21.67;;;;;13.80;75.57;101205.03;5059161;28;45375;-84
2021/09/25 00:50:51;;;;;;;;;21.67;20.67;;;;;13.78;75.65;101207.91;5060711;28;45283;-84
2021/09/25 00:53:17;;;;;;;;;22.33;22.00;;;;;13.71;75.75;101190.94;5062576;28;45557;-84
2021/09/25 00:55:43;;;;;;;;;26.33;23.33;;;;;13.69;75.47;101196.47;5062595;28;45204;-84
2021/09/25 00:58:09;;;;;;;;;22.67;19.67;;;;;13.72;75.82;101195.28;5062557;28;45307;-84
2021/09/25 01:00:35;;;;;;;;;21.67;20.33;;;;;13.74;75.66;101196.72;5062623;28;45338;-84
2021/09/25 01:03:01;;;;;;;;;20.00;20.00;;;;;13.72;75.56;101195.28;5062345;28;45464;-84
2021/09/25 01:05:27;;;;;;;;;24.67;23.67;;;;;13.76;75.63;101204.56;5062223;28;46107;-84
2021/09/25 01:07:53;;;;;;;;;24.33;24.00;;;;;13.70;75.86;101200.78;5060589;28;45256;-84
2021/09/25 01:10:20;;;;;;;;;22.00;20.33;;;;;13.64;75.63;101193.50;5060644;28;45281;-85
2021/09/25 01:12:47;;;;;;;;;21.00;21.00;;;;;13.67;75.54;101194.97;5062266;28;45487;-85
2021/09/25 01:15:13;;;;;;;;;22.00;21.00;;;;;13.68;75.69;101189.44;5061868;28;45993;-84
2021/09/25 01:17:39;;;;;;;;;21.00;19.33;;;;;13.65;75.45;101179.16;5062104;28;45529;-84
2021/09/25 01:20:07;;;;;;;;;25.00;25.00;;;;;13.66;75.78;101191.50;5062301;28;45395;-84
2021/09/25 01:22:33;;;;;;;;;26.00;23.33;;;;;13.57;75.76;101187.25;5060434;28;45517;-84
2021/09/25 01:24:59;;;;;;;;;23.00;22.00;;;;;13.59;75.77;101185.25;5061839;28;45247;-84
2021/09/25 01:27:25;;;;;;;;;23.00;22.67;;;;;13.57;75.80;101176.56;5062002;28;45230;-84
2021/09/25 01:29:51;;;;;;;;;22.33;21.67;;;;;13.53;75.69;101168.09;5066461;28;45319;-84
2021/09/25 01:32:17;;;;;;;;;21.33;20.67;;;;;13.60;75.50;101170.88;5082430;28;45283;-84
2021/09/25 01:34:44;;;;;;;;;23.67;22.33;;;;;13.57;75.48;101172.06;5082205;27;45349;-84
2021/09/25 01:37:10;;;;;;;;;24.00;22.00;;;;;13.58;75.33;101170.19;5080362;28;45516;-84
2021/09/25 01:39:35;;;;;;;;;24.67;23.33;;;;;13.52;75.50;101173.63;5082257;28;45364;-84
2021/09/25 01:42:03;;;;;;;;;21.67;21.67;;;;;13.50;75.78;101171.16;5082077;28;45337;-84
2021/09/25 01:44:29;;;;;;;;;23.33;23.33;;;;;13.49;75.78;101174.78;5081890;27;45464;-84
2021/09/25 01:46:56;;;;;;;;;25.33;24.33;;;;;13.41;75.76;101167.66;5081711;27;45270;-84
2021/09/25 01:49:22;;;;;;;;;25.33;24.00;;;;;13.39;75.68;101170.53;5080803;28;45223;-84
2021/09/25 01:51:48;;;;;;;;;25.00;24.33;;;;;13.37;75.64;101172.56;5081688;28;45356;-84
2021/09/25 01:54:15;;;;;;;;;24.67;23.00;;;;;13.40;75.55;101171.38;5081801;28;45585;-84
2021/09/25 01:56:41;;;;;;;;;28.33;25.00;;;;;13.33;75.55;101159.75;5081975;28;45362;-84
2021/09/25 01:59:07;;;;;;;;;23.67;23.67;;;;;13.30;75.49;101163.63;5081671;28;45353;-84
2021/09/25 02:01:33;;;;;;;;;24.33;24.33;;;;;13.32;75.50;101166.94;5081586;28;45318;-84
2021/09/25 02:03:58;;;;;;;;;25.67;25.67;;;;;13.28;75.60;101162.13;5081636;27;45330;-83
2021/09/25 02:06:24;;;;;;;;;25.00;23.67;;;;;13.26;75.26;101154.34;5081750;28;45274;-84
2021/09/25 02:08:49;;;;;;;;;24.33;23.67;;;;;13.27;75.29;101155.97;5081903;28;45170;-84
2021/09/25 02:11:15;;;;;;;;;24.33;24.00;;;;;13.11;75.34;101136.44;5081676;28;45301;-84
2021/09/25 02:13:41;;;;;;;;;23.33;23.33;;;;;13.15;75.28;101133.41;5081393;28;45967;-84
2021/09/25 02:16:07;;;;;;;;;27.33;24.67;;;;;13.11;75.36;101125.75;5081658;28;45216;-84
2021/09/25 02:18:33;;;;;;;;;30.67;26.67;;;;;13.16;75.55;101143.91;5081707;28;45294;-84
2021/09/25 02:20:59;;;;;;;;;22.00;20.33;;;;;13.09;75.64;101143.81;5081487;27;45409;-84
2021/09/25 02:23:25;;;;;;;;;27.00;27.00;;;;;13.04;75.56;101140.84;5081119;28;45317;-84
2021/09/25 02:25:51;;;;;;;;;24.00;24.00;;;;;13.04;75.29;101140.84;5081375;28;45314;-84
2021/09/25 02:28:16;;;;;;;;;23.33;23.33;;;;;13.05;75.74;101147.03;5081424;27;45516;-84
2021/09/25 02:30:42;;;;;;;;;23.00;21.33;;;;;12.98;75.62;101153.06;5069324;28;45259;-84
2021/09/25 02:33:08;;;;;;;;;25.00;24.00;;;;;12.92;75.67;101134.28;5061071;28;45378;-83
2021/09/25 02:35:33;;;;;;;;;22.33;22.33;;;;;12.91;76.20;101137.97;5060942;28;45353;-83
2021/09/25 02:37:59;;;;;;;;;25.00;23.00;;;;;12.92;76.18;101147.63;5060773;28;45267;-83
2021/09/25 02:40:25;;;;;;;;;24.33;24.33;;;;;12.90;76.32;101137.13;5060854;28;45512;-83
2021/09/25 02:42:51;;;;;;;;;28.33;27.33;;;;;12.90;76.15;101141.66;5060865;28;46239;-83
2021/09/25 02:45:18;;;;;;;;;26.67;26.67;;;;;12.92;76.21;101153.78;5060483;28;45310;-83
2021/09/25 02:47:44;;;;;;;;;25.00;24.00;;;;;12.93;76.30;101139.44;5060436;28;45441;-83
2021/09/25 02:50:12;;;;;;;;;28.33;28.33;;;;;12.97;75.95;101142.59;5060650;28;45480;-83
2021/09/25 02:52:38;;;;;;;;;28.67;28.67;;;;;12.95;76.16;101140.09;5060463;28;46656;-83
2021/09/25 02:55:06;;;;;;;;;25.33;24.00;;;;;12.95;76.17;101141.91;5060601;28;45263;-82
2021/09/25 02:57:32;;;;;;;;;26.00;26.00;;;;;12.87;76.23;101130.31;5060679;28;45230;-83
2021/09/25 02:59:57;;;;;;;;;26.67;26.67;;;;;12.85;76.31;101124.34;5058911;28;45647;-83
2021/09/25 03:02:23;;;;;;;;;27.67;26.67;;;;;12.91;76.52;101138.81;5060453;28;46013;-83
2021/09/25 03:04:49;;;;;;;;;30.00;28.67;;;;;12.88;76.56;101139.97;5060418;28;45264;-83
2021/09/25 03:07:14;;;;;;;;;32.00;28.00;;;;;12.82;76.35;101132.72;5060659;28;45323;-83
2021/09/25 03:09:40;;;;;;;;;26.67;25.33;;;;;12.83;76.22;101137.03;5060406;28;45321;-83
2021/09/25 03:12:06;;;;;;;;;26.33;25.00;;;;;12.80;76.26;101129.38;5060403;28;45446;-83
2021/09/25 03:14:31;;;;;;;;;28.67;28.00;;;;;12.83;76.49;101130.84;5059743;28;45764;-83
2021/09/25 03:16:57;;;;;;;;;27.00;26.33;;;;;12.79;76.14;101121.56;5060539;28;45288;-83
2021/09/25 03:19:23;;;;;;;;;30.00;25.67;;;;;12.85;76.13;101131.50;5060318;28;45488;-83
2021/09/25 03:21:48;;;;;;;;;25.00;23.33;;;;;12.84;76.13;101132.53;5059996;28;46263;-83
2021/09/25 03:24:14;;;;;;;;;21.33;20.33;;;;;12.83;76.45;101136.19;5060175;28;45278;-83
2021/09/25 03:26:40;;;;;;;;;25.67;25.67;;;;;12.72;76.22;101113.47;5060400;28;45226;-83
2021/09/25 03:29:08;;;;;;;;;27.33;27.33;;;;;12.73;76.36;101131.09;5059886;28;45432;-81
2021/09/25 03:31:34;;;;;;;;;26.67;26.33;;;;;12.69;75.97;101127.16;5078735;28;45291;-82
2021/09/25 03:33:59;;;;;;;;;29.33;29.00;;;;;12.66;76.22;101122.97;5080242;27;45374;-82
2021/09/25 03:36:25;;;;;;;;;32.67;29.67;;;;;12.71;76.15;101130.44;5080332;28;45396;-83
2021/09/25 03:38:51;;;;;;;;;38.00;34.00;;;;;12.70;76.32;101123.47;5080092;28;45488;-83
2021/09/25 03:41:16;;;;;;;;;39.00;34.00;;;;;12.68;76.24;101118.31;5080123;27;45314;-83
2021/09/25 03:43:44;;;;;;;;;35.50;32.00;;;;;12.60;76.22;101107.72;5079937;28;45311;-82
2021/09/25 03:46:10;;;;;;;;;33.00;30.67;;;;;12.65;76.32;101113.34;5080131;28;45230;-83
2021/09/25 03:48:35;;;;;;;;;32.33;29.33;;;;;12.62;76.35;101108.34;5080013;28;45280;-83
2021/09/25 03:51:01;;;;;;;;;28.67;26.00;;;;;12.56;76.13;101099.25;5080080;27;46202;-83
2021/09/25 03:53:26;;;;;;;;;27.00;26.33;;;;;12.63;76.44;101112.66;5080055;27;45223;-83
2021/09/25 03:55:52;;;;;;;;;28.67;26.00;;;;;12.56;76.46;101101.91;5080276;28;45129;-83
2021/09/25 03:58:17;;;;;;;;;28.00;28.00;;;;;12.58;76.20;101110.56;5079999;27;45227;-83
2021/09/25 04:00:43;;;;;;;;;26.33;25.33;;;;;12.57;76.44;101118.75;5079845;27;45195;-83
2021/09/25 04:03:10;;;;;;;;;29.00;24.33;;;;;12.53;76.17;101126.25;5080114;27;45529;-83
2021/09/25 04:05:36;;;;;;;;;31.67;28.33;;;;;12.52;76.23;101119.28;5080039;27;45419;-83
2021/09/25 04:08:02;;;;;;;;;27.33;25.67;;;;;12.44;76.32;101113.97;5079684;28;45430;-83
2021/09/25 04:10:28;;;;;;;;;28.00;28.00;;;;;12.44;76.68;101122.81;5079814;28;45400;-83
2021/09/25 04:12:53;;;;;;;;;29.67;28.67;;;;;12.41;76.87;101117.84;5079795;27;45317;-83
2021/09/25 04:15:19;;;;;;;;;31.67;30.67;;;;;12.39;76.62;101116.38;5079881;28;45287;-83
2021/09/25 04:17:45;;;;;;;;;27.67;27.00;;;;;12.44;76.71;101112.16;5079812;28;45490;-83
2021/09/25 04:20:12;;;;;;;;;26.33;26.33;;;;;12.49;76.48;101114.28;5079780;27;45500;-83
2021/09/25 04:22:37;;;;;;;;;31.00;29.33;;;;;12.46;76.46;101117.31;5079552;28;45430;-83
2021/09/25 04:25:03;;;;;;;;;29.67;29.00;;;;;12.39;76.42;101117.19;5066314;28;45330;-83
2021/09/25 04:27:29;;;;;;;;;32.33;29.00;;;;;12.42;76.29;101119.50;5062963;28;45323;-83
2021/09/25 04:29:59;;;;;;;;;27.00;26.00;;;;;12.43;76.51;101118.50;5067590;28;45311;-83
2021/09/25 04:32:25;;;;;;;;;27.67;25.67;;;;;12.48;76.32;101109.97;5083287;27;45234;-83
2021/09/25 04:34:51;;;;;;;;;26.00;25.67;;;;;12.37;76.13;101090.69;5083284;28;45250;-83
2021/09/25 04:37:17;;;;;;;;;26.67;26.33;;;;;12.40;76.41;101097.53;5082709;28;45499;-83
2021/09/25 04:39:42;;;;;;;;;27.33;25.00;;;;;12.41;76.20;101099.19;5083084;28;45441;-83
2021/09/25 04:42:08;;;;;;;;;26.67;26.33;;;;;12.36;76.04;101104.19;5083183;28;45277;-83
2021/09/25 04:44:33;;;;;;;;;24.67;23.00;;;;;12.40;76.04;101104.69;5082981;28;45287;-83
2021/09/25 04:46:59;;;;;;;;;25.33;25.33;;;;;12.40;76.23;101104.69;5082540;28;45497;-84
2021/09/25 04:49:25;;;;;;;;;24.33;24.00;;;;;12.35;75.76;101097.22;5082873;28;45376;-84
2021/09/25 04:51:50;;;;;;;;;30.00;27.67;;;;;12.32;75.64;101101.06;5082865;27;45325;-82
2021/09/25 04:54:16;;;;;;;;;28.67;25.33;;;;;12.32;76.06;101102.91;5083116;27;45507;-83
2021/09/25 04:56:41;;;;;;;;;31.33;29.33;;;;;12.30;75.98;101102.28;5083096;27;45439;-84
2021/09/25 04:59:07;;;;;;;;;27.33;26.33;;;;;12.24;76.00;101093.13;5082489;28;45333;-83
2021/09/25 05:01:33;;;;;;;;;27.67;27.00;;;;;12.27;75.82;101098.09;5082840;28;45299;-83
2021/09/25 05:04:01;;;;;;;;;27.33;25.33;;;;;12.26;75.67;101099.13;5081502;28;45521;-84
2021/09/25 05:06:28;;;;;;;;;27.33;27.00;;;;;12.26;75.49;101104.44;5082662;28;45243;-83
2021/09/25 05:08:53;;;;;;;;;29.33;27.00;;;;;12.29;75.90;101108.59;5079966;28;46545;-83
2021/09/25 05:11:19;;;;;;;;;25.00;25.00;;;;;12.24;75.89;101106.44;5062255;28;45348;-84
2021/09/25 05:13:44;;;;;;;;;29.33;28.00;;;;;12.25;75.64;101108.94;5062189;28;45394;-84
2021/09/25 05:16:10;;;;;;;;;27.67;26.33;;;;;12.22;75.85;101106.63;5062308;28;45279;-84
2021/09/25 05:18:35;;;;;;;;;27.00;27.00;;;;;12.14;75.83;101092.53;5062099;28;45368;-84
2021/09/25 05:21:01;;;;;;;;;30.67;29.00;;;;;12.19;75.80;101104.34;5062212;28;45326;-84
2021/09/25 05:23:27;;;;;;;;;26.00;24.67;;;;;12.19;76.30;101106.16;5062206;28;45259;-84
2021/09/25 05:25:52;;;;;;;;;27.33;26.67;;;;;12.07;76.21;101093.25;5061931;28;45521;-83
2021/09/25 05:28:18;;;;;;;;;27.00;25.00;;;;;12.09;76.29;101101.06;5061952;28;45403;-84
2021/09/25 05:30:44;;;;;;;;;25.67;24.67;;;;;12.07;76.17;101097.75;5074063;28;45265;-84
2021/09/25 05:33:09;;;;;;;;;25.33;25.33;;;;;12.04;75.89;101090.91;5082561;28;45161;-84
2021/09/25 05:35:35;;;;;;;;;25.67;25.33;;;;;12.08;76.17;101104.72;5082172;28;45310;-84
2021/09/25 05:38:02;;;;;;;;;27.67;25.67;;;;;12.10;76.03;101102.72;5081620;28;46331;-83
2021/09/25 05:40:27;;;;;;;;;28.00;27.00;;;;;12.08;76.00;101104.72;5082091;28;45298;-83
2021/09/25 05:42:53;;;;;;;;;27.67;27.67;;;;;12.01;75.96;101099.25;5082228;28;45199;-83
2021/09/25 05:45:18;;;;;;;;;24.33;24.33;;;;;12.07;75.82;101103.06;5081829;27;45491;-83
2021/09/25 05:47:45;;;;;;;;;24.33;22.33;;;;;11.99;76.25;101091.44;5081522;28;45915;-83
2021/09/25 05:50:11;;;;;;;;;22.67;21.67;;;;;11.96;75.94;101097.09;5082122;27;45330;-83
2021/09/25 05:52:37;;;;;;;;;15.67;15.67;;;;;11.96;75.94;101086.44;5082001;28;45287;-84
2021/09/25 05:55:05;;;;;;;;;26.33;25.00;;;;;12.04;75.70;101098.06;5067955;28;45275;-83
2021/09/25 05:57:30;;;;;;;;;22.67;22.67;;;;;12.03;75.72;101107.06;5061668;28;45181;-83
2021/09/25 05:59:56;;;;;;;;;27.67;25.33;;;;;12.01;75.83;101107.22;5061112;28;45271;-83
2021/09/25 06:02:22;;;;;;;;;24.00;24.00;;;;;12.02;75.56;101110.72;5061763;28;45216;-83
2021/09/25 06:04:47;;;;;;;;;24.00;23.33;;;;;11.99;75.86;101112.72;5061351;28;45592;-83
2021/09/25 06:07:13;;;;;;;;;25.67;23.67;;;;;11.95;76.02;101094.59;5061368;28;46013;-83
2021/09/25 06:09:41;;;;;;;;;26.00;23.00;;;;;11.97;76.01;101101.41;5061150;28;45384;-83
2021/09/25 06:12:07;;;;;;;;;25.00;23.00;;;;;12.00;75.94;101109.06;5061439;28;45329;-83
2021/09/25 06:14:33;;;;;;;;;34.25;30.75;;;;;11.97;76.09;101109.41;5061123;28;45446;-83
2021/09/25 06:16:59;;;;;;;;;36.33;32.33;;;;;11.96;76.07;101106.91;5061177;28;45406;-83
2021/09/25 06:19:25;;;;;;;;;37.25;31.25;;;;;11.95;76.42;101105.25;5061148;28;45209;-83
2021/09/25 06:21:50;;;;;;;;;34.75;32.25;;;;;11.97;76.35;101111.22;5061342;28;45212;-84
2021/09/25 06:24:16;;;;;;;;;41.50;35.25;;;;;11.95;76.31;101106.09;5060944;28;45276;-83
2021/09/25 06:26:41;;;;;;;;;39.75;35.25;;;;;12.02;76.84;101116.88;5061066;28;45287;-84
2021/09/25 06:29:07;;;;;;;;;44.75;37.00;;;;;12.02;76.51;101118.69;5060845;28;45382;-83
2021/09/25 06:31:34;;;;;;;;;47.75;39.50;;;;;12.04;76.23;101114.88;5079856;28;45256;-84
2021/09/25 06:34:00;;;;;;;;;50.00;39.50;;;;;12.05;76.26;101111.19;5073916;27;45568;-83
2021/09/25 06:36:26;;;;;;;;;46.25;39.25;;;;;12.09;76.57;101117.06;5060683;28;45377;-83
2021/09/25 06:38:52;;;;;;;;;43.25;37.25;;;;;12.06;76.62;101102.19;5059936;28;45281;-83
2021/09/25 06:41:17;;;;;;;;;39.50;34.25;;;;;12.15;76.67;101116.31;5060698;28;45437;-82
2021/09/25 06:43:44;;;;;;;;;39.50;33.75;;;;;12.02;76.74;101086.72;5060471;28;45342;-83
2021/09/25 06:46:11;;;;;;;;;34.33;31.67;;;;;12.06;76.47;101094.19;5060059;28;45409;-83
2021/09/25 06:48:37;;;;;;;;;36.25;32.25;;;;;12.11;76.82;101093.72;5059612;28;45224;-82
2021/09/25 06:51:03;;;;;;;;;34.33;31.00;;;;;12.23;76.65;101108.31;5060905;28;45228;-82
2021/09/25 06:53:28;;;;;;;;;33.67;30.33;;;;;12.16;76.79;101086.03;5060495;28;45329;-81
2021/09/25 06:55:54;;;;;;;;;32.67;30.33;;;;;12.32;76.63;101106.41;5060580;28;45208;-79
2021/09/25 06:58:19;;;;;;;;;30.67;28.00;;;;;12.33;76.86;101102.72;5060470;28;45340;-80
2021/09/25 07:00:47;;;;;;;;;30.67;30.00;;;;;12.36;76.76;101097.03;5060731;28;45260;-80
2021/09/25 07:03:14;;;;;;;;;27.00;27.00;;;;;12.44;76.88;101098.00;5060599;28;45296;-80
2021/09/25 07:05:49;;;;;;;;;32.00;29.00;;;;;12.42;77.17;101084.03;5060449;28;46496;-80
2021/09/25 07:08:14;;;;;;;;;29.67;27.00;;;;;12.53;77.32;101098.75;5060214;28;45271;-80
2021/09/25 07:10:40;;;;;;;;;37.67;32.33;;;;;12.55;77.12;101092.25;5060383;28;45275;-79
2021/09/25 07:13:05;;;;;;;;;35.25;32.25;;;;;12.60;77.03;101086.41;5060350;28;45561;-79
2021/09/25 07:15:32;;;;;;;;;34.33;31.33;;;;;12.65;77.18;101084.00;5060004;28;45221;-81
2021/09/25 07:17:58;;;;;;;;;35.67;32.00;;;;;12.75;77.10;101081.91;5062337;28;45353;-82
2021/09/25 07:20:24;;;;;;;;;36.00;32.00;;;;;12.78;76.94;101074.56;5060602;28;45271;-81
2021/09/25 07:22:51;;;;;;;;;37.75;33.75;;;;;12.86;77.36;101087.81;5060146;28;45971;-82
2021/09/25 07:25:21;;;;;;;;;40.00;34.00;;;;;12.92;77.25;101097.75;5060710;28;45349;-81
2021/09/25 07:27:47;;;;;;;;;32.75;31.00;;;;;12.96;77.40;101092.91;5059016;28;45407;-78
2021/09/25 07:30:13;;;;;;;;;36.33;32.33;;;;;13.02;77.21;101096.69;5060302;28;45294;-78
2021/09/25 07:32:39;;;;;;;;;34.33;31.00;;;;;13.08;77.24;101099.44;5061905;28;45394;-79
2021/09/25 07:35:06;;;;;;;;;40.00;32.00;;;;;13.16;77.69;101100.38;5060176;28;46244;-80
2021/09/25 07:37:34;;;;;;;;;40.67;35.00;;;;;13.17;77.49;101083.38;5060377;28;45377;-80
2021/09/25 07:40:01;;;;;;;;;42.25;36.25;;;;;13.24;77.62;101078.94;5060789;28;45359;-80
2021/09/25 07:42:26;;;;;;;;;40.00;32.33;;;;;13.35;77.38;101083.00;5060023;28;45453;-80
2021/09/25 07:44:52;;;;;;;;;35.00;31.67;;;;;13.40;77.30;101085.94;5057588;28;46974;-80
2021/09/25 07:47:17;;;;;;;;;37.33;32.67;;;;;13.48;77.60;101093.03;5058774;28;45465;-80
2021/09/25 07:49:43;;;;;;;;;34.33;30.33;;;;;13.56;76.93;101092.13;5059167;28;45418;-80
2021/09/25 07:52:09;;;;;;;;;36.33;31.33;;;;;13.62;77.52;101091.41;5058972;28;45418;-79
2021/09/25 07:54:34;;;;;;;;;34.33;30.33;;;;;13.68;77.24;101082.63;5059244;28;45430;-77
2021/09/25 07:57:00;;;;;;;;;32.67;29.00;;;;;13.72;77.27;101072.41;5059635;28;45269;-79
2021/09/25 07:59:25;;;;;;;;;29.00;28.00;;;;;13.76;77.27;101074.50;5059444;28;45367;-80
2021/09/25 08:01:51;;;;;;;;;32.00;30.00;;;;;13.83;77.06;101074.56;5059494;28;45359;-79
2021/09/25 08:04:17;;;;;;;;;33.00;29.33;;;;;13.85;76.91;101072.56;5059372;28;45381;-79
2021/09/25 08:06:43;;;;;;;;;29.33;28.67;;;;;13.85;76.94;101066.38;5059525;28;45353;-78
2021/09/25 08:09:08;;;;;;;;;35.67;32.00;;;;;13.93;77.04;101078.81;5059570;28;45311;-79
2021/09/25 08:11:35;;;;;;;;;26.67;26.67;;;;;13.99;77.32;101081.56;5059109;28;45335;-78
2021/09/25 08:14:00;;;;;;;;;35.33;32.00;;;;;14.03;77.31;101083.84;5058924;28;45461;-80
2021/09/25 08:16:26;;;;;;;;;32.00;30.00;;;;;14.06;77.15;101070.09;5058959;28;45471;-79
2021/09/25 08:18:52;;;;;;;;;33.33;31.33;;;;;14.15;77.31;101066.28;5060000;28;45283;-78
2021/09/25 08:21:17;;;;;;;;;36.33;31.67;;;;;14.14;77.23;101054.78;5058045;28;45434;-79
2021/09/25 08:23:43;;;;;;;;;37.00;32.33;;;;;14.26;77.21;101064.97;5057910;28;46196;-81
2021/09/25 08:26:09;;;;;;;;;34.00;31.67;;;;;14.30;77.15;101074.25;5058834;28;45224;-83
2021/09/25 08:28:35;;;;;;;;;36.33;32.00;;;;;14.33;77.07;101071.19;5057505;28;45327;-81
2021/09/25 08:31:00;;;;;;;;;31.00;29.67;;;;;14.36;77.20;101069.97;5051115;28;45749;-81
2021/09/25 08:33:26;;;;;;;;;31.67;28.67;;;;;14.45;77.41;101076.03;5057341;28;45734;-81
2021/09/25 08:35:52;;;;;;;;;29.67;28.33;;;;;14.49;77.38;101077.31;5058465;28;45364;-81
2021/09/25 08:38:17;;;;;;;;;30.67;29.00;;;;;14.55;77.15;101083.75;5058383;28;45366;-81
2021/09/25 08:40:43;;;;;;;;;30.67;29.33;;;;;14.55;77.01;101081.91;5056486;28;45561;-81
2021/09/25 08:43:09;;;;;;;;;29.00;28.00;;;;;14.60;77.25;101073.28;5058593;28;45303;-81
2021/09/25 08:45:35;;;;;;;;;26.00;25.67;;;;;14.66;77.25;101077.84;5057169;28;45385;-81
2021/09/25 08:48:01;;;;;;;;;29.67;27.67;;;;;14.66;76.89;101059.13;5059341;28;45368;-80
2021/09/25 08:50:27;;;;;;;;;34.00;30.33;;;;;14.74;77.05;101071.53;5060780;28;45532;-79
2021/09/25 08:52:53;;;;;;;;;29.67;28.00;;;;;14.78;76.92;101059.44;5060009;28;45377;-80
2021/09/25 08:55:18;;;;;;;;;34.33;31.00;;;;;14.83;77.00;101064.22;5060461;28;45323;-81
2021/09/25 08:57:46;;;;;;;;;30.00;28.67;;;;;14.86;77.15;101061.16;5061425;28;45283;-80
2021/09/25 09:00:34;;;;;;;;;31.00;30.00;;;;;14.90;76.93;101067.78;5059571;28;45460;-81
2021/09/25 09:03:32;;;;;;;;;37.00;32.00;;;;;14.95;76.91;101073.38;5059497;28;46878;-81
2021/09/25 09:06:12;;;;;;;;;38.00;33.00;;;;;14.98;76.96;101073.00;5058527;28;45263;-83
2021/09/25 09:08:39;;;;;;;;;35.00;31.33;;;;;15.02;76.79;101070.72;5057366;28;45304;-83
2021/09/25 09:11:11;;;;;;;;;34.67;32.00;;;;;15.04;77.14;101060.66;5058735;28;45345;-83
2021/09/25 09:13:40;;;;;;;;;37.67;33.00;;;;;15.10;77.27;101064.41;5061344;28;45512;-83
2021/09/25 09:16:08;;;;;;;;;41.67;35.00;;;;;15.09;77.09;101052.06;5063352;28;45245;-82
2021/09/25 09:18:39;;;;;;;;;35.67;31.67;;;;;15.10;76.94;101053.69;5061455;28;45249;-83
2021/09/25 09:21:15;;;;;;;;;37.33;33.00;;;;;15.19;76.91;101065.06;5060380;28;46152;-83
2021/09/25 09:23:48;;;;;;;;;35.33;32.33;;;;;15.30;77.34;101058.34;5061716;28;46656;-84
2021/09/25 09:26:19;;;;;;;;;39.00;34.00;;;;;15.31;77.00;101042.06;5060265;28;45379;-82
2021/09/25 09:28:47;;;;;;;;;37.33;32.00;;;;;15.57;77.09;101080.75;5060416;28;45402;-82
2021/09/25 09:31:14;;;;;;;;;40.00;34.00;;;;;15.68;76.56;101081.19;5061221;28;45449;-84
2021/09/25 09:33:46;;;;;;;;;40.00;35.00;;;;;15.76;76.68;101071.13;5061380;28;45255;-80
2021/09/25 09:36:31;;;;;;;;;36.00;32.00;;;;;15.93;76.48;101086.84;5060976;28;45375;-81
2021/09/25 09:39:11;;;;;;;;;40.67;32.67;;;;;15.97;76.46;101064.00;5058819;28;45532;-80
2021/09/25 09:41:39;;;;;;;;;40.33;34.00;;;;;16.11;76.58;101056.81;5064454;28;45243;-80
2021/09/25 09:44:06;;;;;;;;;42.00;35.33;;;;;16.31;76.03;101072.09;5068970;28;46185;-82
2021/09/25 09:46:35;;;;;;;;;42.67;36.00;;;;;16.45;75.57;101059.53;5061046;28;45610;-81
2021/09/25 09:49:01;;;;;;;;;41.00;36.00;;;;;16.59;76.13;101041.56;5061630;28;45223;-79
2021/09/25 09:51:38;;;;;;;;;44.33;37.67;;;;;16.81;75.29;101044.03;5060453;28;45517;-81
2021/09/25 09:54:16;;;;;;;;;42.00;36.00;;;;;16.95;75.07;101031.41;5061435;28;45388;-81
2021/09/25 09:56:43;;;;;;;;;42.67;36.00;;;;;17.14;74.90;101028.91;5059803;28;45385;-83
2021/09/25 09:59:10;;;;;;;;;40.00;34.33;;;;;17.31;74.75;101026.59;5059959;28;45473;-81
2021/09/25 10:01:37;;;;;;;;;33.67;31.00;;;;;17.51;73.98;101023.00;5061200;28;45460;-81
2021/09/25 10:04:04;;;;;;;;;42.00;35.00;;;;;17.70;73.65;101034.69;5061648;28;46587;-78
2021/09/25 10:06:29;;;;;;;;;35.67;32.67;;;;;17.86;73.34;101038.72;5060306;28;45500;-79
2021/09/25 10:08:55;;;;;;;;;38.00;34.00;;;;;18.03;72.97;101032.81;5059964;28;45522;-82
2021/09/25 10:11:23;;;;;;;;;34.33;31.33;;;;;18.18;73.11;101021.78;5059556;28;46773;-79
2021/09/25 10:13:53;;;;;;;;;29.33;28.67;;;;;18.41;72.44;101021.19;5061017;28;45332;-79
2021/09/25 10:16:19;;;;;;;;;31.67;29.33;;;;;18.61;72.28;101030.13;5063442;28;45653;-80
2021/09/25 10:18:45;;;;;;;;;36.67;32.00;;;;;18.73;71.42;101017.59;5062478;28;45288;-81
2021/09/25 10:21:13;;;;;;;;;32.67;30.00;;;;;18.85;71.36;101012.28;5059837;28;45852;-84
2021/09/25 10:23:47;;;;;;;;;31.67;29.33;;;;;18.96;71.19;101018.81;5058353;28;45485;-81
2021/09/25 10:26:16;;;;;;;;;26.67;26.67;;;;;19.13;70.66;101032.50;5061068;28;45329;-83
2021/09/25 10:28:52;;;;;;;;;31.33;29.00;;;;;19.30;70.89;101037.31;5061047;28;45299;-82
2021/09/25 10:31:18;;;;;;;;;29.67;28.67;;;;;19.46;70.26;101029.66;5077721;28;45204;-79
2021/09/25 10:34:07;;;;;;;;;27.00;26.00;;;;;19.59;70.07;101036.75;5081137;28;45365;-79
2021/09/25 10:36:41;;;;;;;;;30.67;29.00;;;;;19.66;69.41;101027.53;5079848;28;45473;-81
2021/09/25 10:39:29;;;;;;;;;29.67;29.00;;;;;19.72;69.82;101031.16;5081236;28;45337;-78
2021/09/25 10:42:02;;;;;;;;;26.00;26.00;;;;;19.74;69.65;101026.38;5081052;28;45252;-81
2021/09/25 10:44:34;;;;;;;;;30.33;29.00;;;;;19.77;69.38;101031.31;5080646;28;45858;-78
2021/09/25 10:47:21;;;;;;;;;29.67;27.67;;;;;19.79;68.96;101023.00;5057198;28;45644;-82
2021/09/25 10:49:56;;;;;;;;;18.67;18.67;;;;;19.86;68.93;101025.59;5058406;28;45293;-83
2021/09/25 10:52:40;;;;;;;;;22.00;21.33;;;;;19.88;68.40;101007.31;5058194;28;45512;-82
2021/09/25 10:55:29;;;;;;;;;26.33;25.00;;;;;20.03;68.65;101005.03;5040294;28;45369;-78
2021/09/25 10:58:25;;;;;;;;;23.33;23.33;;;;;20.16;68.77;101009.41;5047143;28;45464;-81
2021/09/25 11:01:10;;;;;;;;;24.67;23.33;;;;;20.26;68.09;101008.00;5057463;28;45311;-79
2021/09/25 11:03:42;;;;;;;;;24.67;23.67;;;;;20.33;68.18;101006.03;5060296;28;45587;-79
2021/09/25 11:06:12;;;;;;;;;23.00;23.00;;;;;20.43;67.59;101003.56;5060256;28;45378;-78
2021/09/25 11:08:47;;;;;;;;;25.33;24.33;;;;;20.48;67.40;100989.38;5060146;28;45217;-78
2021/09/25 11:11:15;;;;;;;;;24.00;22.67;;;;;20.56;67.25;100986.31;5060363;28;45395;-79